Map

Track Data

SID SEASON NUMBER BASIN SUBBASIN NAME ISO_TIME NATURE LAT LON WMO_WIND WMO_PRES WMO_AGENCY TRACK_TYPE DIST2LAND LANDFALL IFLAG USA_AGENCY USA_ATCF_ID USA_LAT USA_LON USA_RECORD USA_STATUS USA_WIND USA_PRES USA_SSHS USA_R34_NE USA_R34_SE USA_R34_SW USA_R34_NW USA_R50_NE USA_R50_SE USA_R50_SW USA_R50_NW USA_R64_NE USA_R64_SE USA_R64_SW USA_R64_NW USA_POCI USA_ROCI USA_RMW USA_EYE TOKYO_LAT TOKYO_LON TOKYO_GRADE TOKYO_WIND TOKYO_PRES TOKYO_R50_DIR TOKYO_R50_LONG TOKYO_R50_SHORT TOKYO_R30_DIR TOKYO_R30_LONG TOKYO_R30_SHORT TOKYO_LAND CMA_LAT CMA_LON CMA_CAT CMA_WIND CMA_PRES HKO_LAT HKO_LON HKO_CAT HKO_WIND HKO_PRES NEWDELHI_LAT NEWDELHI_LON NEWDELHI_GRADE NEWDELHI_WIND NEWDELHI_PRES NEWDELHI_CI NEWDELHI_DP NEWDELHI_POCI REUNION_LAT REUNION_LON REUNION_TYPE REUNION_WIND REUNION_PRES REUNION_TNUM REUNION_CI REUNION_RMW REUNION_R34_NE REUNION_R34_SE REUNION_R34_SW REUNION_R34_NW REUNION_R50_NE REUNION_R50_SE REUNION_R50_SW REUNION_R50_NW REUNION_R64_NE REUNION_R64_SE REUNION_R64_SW REUNION_R64_NW BOM_LAT BOM_LON BOM_TYPE BOM_WIND BOM_PRES BOM_TNUM BOM_CI BOM_RMW BOM_R34_NE BOM_R34_SE BOM_R34_SW BOM_R34_NW BOM_R50_NE BOM_R50_SE BOM_R50_SW BOM_R50_NW BOM_R64_NE BOM_R64_SE BOM_R64_SW BOM_R64_NW BOM_ROCI BOM_POCI BOM_EYE BOM_POS_METHOD BOM_PRES_METHOD NADI_LAT NADI_LON NADI_CAT NADI_WIND NADI_PRES WELLINGTON_LAT WELLINGTON_LON WELLINGTON_WIND WELLINGTON_PRES DS824_LAT DS824_LON DS824_STAGE DS824_WIND DS824_PRES TD9636_LAT TD9636_LON TD9636_STAGE TD9636_WIND TD9636_PRES TD9635_LAT TD9635_LON TD9635_WIND TD9635_PRES TD9635_ROCI NEUMANN_LAT NEUMANN_LON NEUMANN_CLASS NEUMANN_WIND NEUMANN_PRES MLC_LAT MLC_LON MLC_CLASS MLC_WIND MLC_PRES USA_GUST BOM_GUST BOM_GUST_PER REUNION_GUST REUNION_GUST_PER USA_SEAHGT USA_SEARAD_NE USA_SEARAD_SE USA_SEARAD_SW USA_SEARAD_NW STORM_SPEED STORM_DIR
1968170N24280 1968 34 NA NA BRENDA 1968-06-17 12:00:00 TS 24.0000 -80.5000 25 hurdat_atl main 111 101 O_____________ hurdat_atl AL021968 24.0000 -80.5000 TD 25 -1 6 330
1968170N24280 1968 34 NA NA BRENDA 1968-06-17 15:00:00 TS 24.2500 -80.6574 main 89 67 P_____________ AL021968 24.2500 -80.6574 TD 25 -1 6 331
1968170N24280 1968 34 NA NA BRENDA 1968-06-17 18:00:00 TS 24.5000 -80.8000 25 1012 hurdat_atl main 67 49 O_____________ hurdat_atl AL021968 24.5000 -80.8000 TD 25 1012 -1 6 335
1968170N24280 1968 34 NA NA BRENDA 1968-06-17 21:00:00 TS 24.7500 -80.9150 main 49 15 P_____________ AL021968 24.7500 -80.9150 TD 25 -1 5 340
1968170N24280 1968 34 NA GM BRENDA 1968-06-18 00:00:00 TS 25.0000 -81.0000 25 hurdat_atl main 15 0 O_____________ hurdat_atl AL021968 25.0000 -81.0000 TD 25 -1 5 345
1968170N24280 1968 34 NA GM BRENDA 1968-06-18 03:00:00 TS 25.2500 -81.0576 main 0 0 P_____________ AL021968 25.2500 -81.0576 TD 25 -1 5 350
1968170N24280 1968 34 NA NA BRENDA 1968-06-18 06:00:00 TS 25.5000 -81.1000 25 hurdat_atl main 0 0 O_____________ hurdat_atl AL021968 25.5000 -81.1000 TD 25 -1 5 351
1968170N24280 1968 34 NA NA BRENDA 1968-06-18 09:00:00 TS 25.7500 -81.1500 main 0 0 P_____________ AL021968 25.7500 -81.1500 TD 25 -1 5 350
1968170N24280 1968 34 NA NA BRENDA 1968-06-18 12:00:00 TS 26.0000 -81.2000 25 hurdat_atl main 0 0 O_____________ hurdat_atl AL021968 26.0000 -81.2000 TD 25 -1 5 349
1968170N24280 1968 34 NA NA BRENDA 1968-06-18 15:00:00 TS 26.2500 -81.2575 main 0 0 P_____________ AL021968 26.2500 -81.2575 TD 25 -1 5 350
1968170N24280 1968 34 NA NA BRENDA 1968-06-18 18:00:00 TS 26.5000 -81.3000 25 hurdat_atl main 0 0 O_____________ hurdat_atl AL021968 26.5000 -81.3000 TD 25 -1 5 355
1968170N24280 1968 34 NA NA BRENDA 1968-06-18 21:00:00 TS 26.7500 -81.3075 main 0 0 P_____________ AL021968 26.7500 -81.3075 TD 25 -1 5 2
1968170N24280 1968 34 NA NA BRENDA 1968-06-19 00:00:00 TS 27.0000 -81.3000 25 hurdat_atl main 0 0 O_____________ hurdat_atl AL021968 27.0000 -81.3000 TD 25 -1 5 2
1968170N24280 1968 34 NA NA BRENDA 1968-06-19 03:00:00 TS 27.2500 -81.3074 main 0 0 P_____________ AL021968 27.2500 -81.3074 TD 25 -1 5 2
1968170N24280 1968 34 NA NA BRENDA 1968-06-19 06:00:00 TS 27.5000 -81.3000 25 hurdat_atl main 0 0 O_____________ hurdat_atl AL021968 27.5000 -81.3000 TD 25 -1 5 4
1968170N24280 1968 34 NA NA BRENDA 1968-06-19 09:00:00 TS 27.7350 -81.2575 main 0 0 P_____________ AL021968 27.7350 -81.2575 TD 25 -1 5 10
1968170N24280 1968 34 NA NA BRENDA 1968-06-19 12:00:00 TS 28.0000 -81.2000 25 hurdat_atl main 0 0 O_____________ hurdat_atl AL021968 28.0000 -81.2000 TD 25 -1 6 10
1968170N24280 1968 34 NA NA BRENDA 1968-06-19 15:00:00 TS 28.3275 -81.1426 main 0 0 P_____________ AL021968 28.3275 -81.1426 TD 25 -1 7 7
1968170N24280 1968 34 NA NA BRENDA 1968-06-19 18:00:00 TS 28.7000 -81.1000 25 1012 hurdat_atl main 0 0 O_____________ hurdat_atl AL021968 28.7000 -81.1000 TD 25 1012 -1 8 2
1968170N24280 1968 34 NA NA BRENDA 1968-06-19 21:00:00 TS 29.1074 -81.1296 main 0 0 P_____________ AL021968 29.1074 -81.1296 TD 25 -1 8 1
1968170N24280 1968 34 NA NA BRENDA 1968-06-20 00:00:00 TS 29.5000 -81.1000 25 hurdat_atl main 9 9 O_____________ hurdat_atl AL021968 29.5000 -81.1000 TD 25 -1 7 14
1968170N24280 1968 34 NA NA BRENDA 1968-06-20 03:00:00 TS 29.8223 -80.9249 main 36 36 P_____________ AL021968 29.8223 -80.9249 TD 25 -1 7 36
1968170N24280 1968 34 NA NA BRENDA 1968-06-20 06:00:00 TS 30.1000 -80.6000 25 hurdat_atl main 75 75 O_____________ hurdat_atl AL021968 30.1000 -80.6000 TD 25 -1 9 51
1968170N24280 1968 34 NA NA BRENDA 1968-06-20 09:00:00 TS 30.3726 -80.1451 main 128 128 P_____________ AL021968 30.3726 -80.1451 TD 25 -1 10 60
1968170N24280 1968 34 NA NA BRENDA 1968-06-20 12:00:00 TS 30.6000 -79.6000 25 hurdat_atl main 172 172 O_____________ hurdat_atl AL021968 30.6000 -79.6000 TD 25 -1 10 66
1968170N24280 1968 34 NA NA BRENDA 1968-06-20 15:00:00 TS 30.7799 -79.0574 main 210 210 P_____________ AL021968 30.7799 -79.0574 TD 25 -1 10 72
1968170N24280 1968 34 NA NA BRENDA 1968-06-20 18:00:00 TS 30.9000 -78.5000 25 hurdat_atl main 236 236 O_____________ hurdat_atl AL021968 30.9000 -78.5000 TD 25 -1 10 78
1968170N24280 1968 34 NA NA BRENDA 1968-06-20 21:00:00 TS 30.9798 -77.9499 main 264 264 P_____________ AL021968 30.9798 -77.9499 TD 27 -1 9 84
1968170N24280 1968 34 NA NA BRENDA 1968-06-21 00:00:00 TS 31.0000 -77.4000 30 hurdat_atl main 291 291 O_____________ hurdat_atl AL021968 31.0000 -77.4000 TD 30 -1 9 91
1968170N24280 1968 34 NA NA BRENDA 1968-06-21 03:00:00 TS 30.9573 -76.8497 main 331 331 P_____________ AL021968 30.9573 -76.8497 TD 37 0 9 96
1968170N24280 1968 34 NA NA BRENDA 1968-06-21 06:00:00 TS 30.9000 -76.3000 45 hurdat_atl main 370 370 O_____________ hurdat_atl AL021968 30.9000 -76.3000 TS 45 0 10 93
1968170N24280 1968 34 NA NA BRENDA 1968-06-21 09:00:00 TS 30.8999 -75.7428 main 397 397 P_____________ AL021968 30.8999 -75.7428 TS 47 0 9 90
1968170N24280 1968 34 NA NA BRENDA 1968-06-21 12:00:00 TS 30.9000 -75.2000 50 1005 hurdat_atl main 425 425 O_____________ hurdat_atl AL021968 30.9000 -75.2000 TS 50 1005 0 9 93
1968170N24280 1968 34 NA NA BRENDA 1968-06-21 15:00:00 TS 30.8499 -74.6773 main 463 463 P_____________ AL021968 30.8499 -74.6773 TS 52 1000 0 9 97
1968170N24280 1968 34 NA NA BRENDA 1968-06-21 18:00:00 TS 30.8000 -74.2000 55 995 hurdat_atl main 484 484 O_____________ hurdat_atl AL021968 30.8000 -74.2000 TS 55 995 0 8 96
1968170N24280 1968 34 NA NA BRENDA 1968-06-21 21:00:00 TS 30.7699 -73.7624 main 502 502 P_____________ AL021968 30.7699 -73.7624 TS 55 994 0 7 90
1968170N24280 1968 34 NA NA BRENDA 1968-06-22 00:00:00 TS 30.8000 -73.4000 55 993 hurdat_atl main 522 522 O_____________ hurdat_atl AL021968 30.8000 -73.4000 TS 55 993 0 6 75
1968170N24280 1968 34 NA NA BRENDA 1968-06-22 03:00:00 TS 30.9198 -73.1201 main 529 520 P_____________ AL021968 30.9198 -73.1201 TS 57 994 0 5 55
1968170N24280 1968 34 NA NA BRENDA 1968-06-22 06:00:00 TS 31.1000 -72.9000 60 hurdat_atl main 523 518 I_____________ hurdat_atl AL021968 31.1000 -72.9000 TS 60 995 0 5 44
1968170N24280 1968 34 NA NA BRENDA 1968-06-22 09:00:00 TS 31.2773 -72.7146 main 518 515 P_____________ AL021968 31.2773 -72.7146 TS 60 996 0 5 41
1968170N24280 1968 34 NA NA BRENDA 1968-06-22 12:00:00 TS 31.5000 -72.5000 60 998 hurdat_atl main 515 513 O_____________ hurdat_atl AL021968 31.5000 -72.5000 TS 60 998 0 7 43
1968170N24280 1968 34 NA NA BRENDA 1968-06-22 15:00:00 TS 31.7851 -72.1652 main 513 512 P_____________ AL021968 31.7851 -72.1652 TS 60 997 0 8 45
1968170N24280 1968 34 NA NA BRENDA 1968-06-22 18:00:00 TS 32.1000 -71.8000 60 997 hurdat_atl main 520 520 O_____________ hurdat_atl AL021968 32.1000 -71.8000 TS 60 997 0 8 43
1968170N24280 1968 34 NA NA BRENDA 1968-06-22 21:00:00 TS 32.3695 -71.5289 main 523 523 P_____________ AL021968 32.3695 -71.5289 TS 60 997 0 8 40
1968170N24280 1968 34 NA NA BRENDA 1968-06-23 00:00:00 TS 32.7000 -71.2000 60 997 hurdat_atl main 524 517 O_____________ hurdat_atl AL021968 32.7000 -71.2000 TS 60 997 0 10 40
1968170N24280 1968 34 NA NA BRENDA 1968-06-23 03:00:00 TS 33.1695 -70.7320 main 525 525 P_____________ AL021968 33.1695 -70.7320 TS 60 996 0 14 43
1968170N24280 1968 34 NA NA BRENDA 1968-06-23 06:00:00 TS 33.7000 -70.1000 60 995 hurdat_atl main 544 544 O_____________ hurdat_atl AL021968 33.7000 -70.1000 TS 60 995 0 16 48
1968170N24280 1968 34 NA NA BRENDA 1968-06-23 09:00:00 TS 34.2451 -69.3036 main 590 587 P_____________ AL021968 34.2451 -69.3036 TS 62 993 0 17 55
1968170N24280 1968 34 NA NA BRENDA 1968-06-23 12:00:00 TS 34.7000 -68.4000 65 992 hurdat_atl main 654 654 O_____________ hurdat_atl AL021968 34.7000 -68.4000 HU 65 992 1 16 64
1968170N24280 1968 34 NA NA BRENDA 1968-06-23 15:00:00 TS 34.9436 -67.5429 main 730 728 P_____________ AL021968 34.9436 -67.5429 HU 65 991 1 15 75
1968170N24280 1968 34 NA NA BRENDA 1968-06-23 18:00:00 TS 35.1000 -66.6000 65 hurdat_atl main 791 791 I_____________ hurdat_atl AL021968 35.1000 -66.6000 HU 65 991 1 17 77
1968170N24280 1968 34 NA NA BRENDA 1968-06-23 21:00:00 TS 35.3294 -65.5034 main 812 806 P_____________ AL021968 35.3294 -65.5034 HU 65 991 1 19 78
1968170N24280 1968 34 NA NA BRENDA 1968-06-24 00:00:00 TS 35.5000 -64.3000 65 991 hurdat_atl main 848 848 O_____________ hurdat_atl AL021968 35.5000 -64.3000 HU 65 991 1 20 84
1968170N24280 1968 34 NA NA BRENDA 1968-06-24 03:00:00 TS 35.5216 -63.0633 main 910 910 P_____________ AL021968 35.5216 -63.0633 HU 65 990 1 20 90
1968170N24280 1968 34 NA NA BRENDA 1968-06-24 06:00:00 TS 35.5000 -61.8000 65 990 hurdat_atl main 939 939 O_____________ hurdat_atl AL021968 35.5000 -61.8000 HU 65 990 1 20 89
1968170N24280 1968 34 NA NA BRENDA 1968-06-24 09:00:00 TS 35.5407 -60.5651 main 976 976 P_____________ AL021968 35.5407 -60.5651 HU 65 990 1 20 87
1968170N24280 1968 34 NA NA BRENDA 1968-06-24 12:00:00 TS 35.6000 -59.3000 65 990 hurdat_atl main 1017 1017 O_____________ hurdat_atl AL021968 35.6000 -59.3000 HU 65 990 1 21 87
1968170N24280 1968 34 NA NA BRENDA 1968-06-24 15:00:00 TS 35.6492 -57.9574 main 1077 1072 P_____________ AL021968 35.6492 -57.9574 HU 65 991 1 22 87
1968170N24280 1968 34 NA NA BRENDA 1968-06-24 18:00:00 TS 35.7000 -56.6000 65 hurdat_atl main 1122 1122 I_____________ hurdat_atl AL021968 35.7000 -56.6000 HU 65 993 1 22 88
1968170N24280 1968 34 NA NA BRENDA 1968-06-24 21:00:00 TS 35.7261 -55.2838 main 1164 1164 P_____________ AL021968 35.7261 -55.2838 HU 62 995 0 21 87
1968170N24280 1968 34 NA NA BRENDA 1968-06-25 00:00:00 TS 35.8000 -54.0000 60 997 hurdat_atl main 1201 1190 O_____________ hurdat_atl AL021968 35.8000 -54.0000 TS 60 997 0 21 83
1968170N24280 1968 34 NA NA BRENDA 1968-06-25 03:00:00 TS 35.9610 -52.7422 main 1179 1163 P_____________ AL021968 35.9610 -52.7422 TS 60 996 0 21 79
1968170N24280 1968 34 NA NA BRENDA 1968-06-25 06:00:00 TS 36.2000 -51.5000 60 hurdat_atl main 1165 1147 I_____________ hurdat_atl AL021968 36.2000 -51.5000 TS 60 995 0 21 75
1968170N24280 1968 34 NA NA BRENDA 1968-06-25 09:00:00 TS 36.4907 -50.2649 main 1148 1138 P_____________ AL021968 36.4907 -50.2649 TS 60 994 0 21 73
1968170N24280 1968 34 NA NA BRENDA 1968-06-25 12:00:00 TS 36.8000 -49.0000 60 994 hurdat_atl main 1143 1140 O_____________ hurdat_atl AL021968 36.8000 -49.0000 TS 60 994 0 21 75
1968170N24280 1968 34 NA NA BRENDA 1968-06-25 15:00:00 TS 37.0562 -47.6713 main 1149 1149 P_____________ AL021968 37.0562 -47.6713 TS 55 0 22 77
1968170N24280 1968 34 NA NA BRENDA 1968-06-25 18:00:00 TS 37.3000 -46.3000 50 hurdat_atl main 1179 1179 O_____________ hurdat_atl AL021968 37.3000 -46.3000 TS 50 0 22 78
1968170N24280 1968 34 NA NA BRENDA 1968-06-25 21:00:00 TS 37.5411 -44.9062 main 1219 1214 P_____________ AL021968 37.5411 -44.9062 TS 47 0 23 77
1968170N24280 1968 34 NA NA BRENDA 1968-06-26 00:00:00 TS 37.8000 -43.5000 45 hurdat_atl main 1259 1259 O_____________ hurdat_atl AL021968 37.8000 -43.5000 TS 45 0 23 76
1968170N24280 1968 34 NA NA BRENDA 1968-06-26 03:00:00 TS 38.0911 -42.0919 main 1308 1308 P_____________ AL021968 38.0911 -42.0919 TS 37 0 23 75
1968170N24280 1968 34 NA NA BRENDA 1968-06-26 06:00:00 TS 38.4000 -40.7000 30 hurdat_atl main 1366 1366 O_____________ hurdat_atl AL021968 38.4000 -40.7000 TD 30 -1 22 74
1968170N24280 1968 34 NA NA BRENDA 1968-06-26 09:00:00 TS 38.7053 -39.3420 main 1429 1429 P_____________ AL021968 38.7053 -39.3420 TD 30 -1 22 74
1968170N24280 1968 34 NA NA BRENDA 1968-06-26 12:00:00 TS 39.0000 -38.0000 30 hurdat_atl main 1490 O_____________ hurdat_atl AL021968 39.0000 -38.0000 TD 30 -1 22 74

About IBTrACS Database

This database is a web-friendly format of International Best Track Archive for Climate Stewardship (IBTrACS), a global best track data archive curated by NOAA dating back to 1842.

Updated: 2021-12-01